createdAt,value
2018-12-03T00:04:59.840Z,5.64
2018-12-03T00:10:03.278Z,5.65
2018-12-03T00:15:07.725Z,5.64
2018-12-03T00:20:12.010Z,5.80
2018-12-03T00:25:15.640Z,5.71
2018-12-03T00:30:19.021Z,5.74
2018-12-03T00:35:22.434Z,5.73
2018-12-03T00:40:26.545Z,5.72
2018-12-03T00:45:30.018Z,5.72
2018-12-03T00:50:33.561Z,5.67
2018-12-03T00:55:37.581Z,5.69
2018-12-03T01:00:41.608Z,5.70
2018-12-03T01:05:45.094Z,5.68
2018-12-03T01:10:48.503Z,5.85
2018-12-03T01:15:51.901Z,5.75
2018-12-03T01:20:56.004Z,5.78
2018-12-03T01:25:59.369Z,5.73
2018-12-03T01:31:02.860Z,5.73
2018-12-03T01:36:06.700Z,5.67
2018-12-03T01:41:10.116Z,5.75
2018-12-03T01:46:13.755Z,5.80
2018-12-03T01:51:17.107Z,5.86
2018-12-03T01:56:21.297Z,5.87
2018-12-03T02:01:24.797Z,5.79
2018-12-03T02:06:28.223Z,5.94
2018-12-03T02:11:34.966Z,5.92
2018-12-03T02:16:38.556Z,5.88
2018-12-03T02:21:42.071Z,5.92
2018-12-03T02:26:45.573Z,5.97
2018-12-03T02:31:49.126Z,6.03
2018-12-03T02:36:52.529Z,5.99
2018-12-03T02:41:56.535Z,6.05
2018-12-03T02:46:59.933Z,6.09
2018-12-03T02:52:03.483Z,6.10
2018-12-03T02:57:06.932Z,6.12
2018-12-03T03:02:10.363Z,6.02
2018-12-03T03:07:13.758Z,6.02
2018-12-03T03:12:17.230Z,6.10
2018-12-03T03:17:20.648Z,6.06
2018-12-03T03:22:24.034Z,6.03
2018-12-03T03:27:27.579Z,6.18
2018-12-03T03:32:31.579Z,6.32
2018-12-03T03:37:35.105Z,6.29
2018-12-03T03:42:38.496Z,6.28
2018-12-03T03:47:41.861Z,6.34
2018-12-03T03:52:45.288Z,6.33
2018-12-03T03:57:48.721Z,6.30
2018-12-03T04:02:52.168Z,6.24
2018-12-03T04:07:55.536Z,6.19
2018-12-03T04:12:58.888Z,6.26
2018-12-03T04:18:02.398Z,6.27
2018-12-03T04:23:05.796Z,6.28
2018-12-03T04:28:09.180Z,6.29
2018-12-03T04:33:14.171Z,6.35
2018-12-03T04:38:17.561Z,6.36
2018-12-03T04:43:21.050Z,6.33
2018-12-03T04:48:24.541Z,6.39
2018-12-03T04:53:28.000Z,6.44
2018-12-03T04:58:31.374Z,6.51
2018-12-03T05:03:34.793Z,6.75
2018-12-03T05:08:38.229Z,6.88
2018-12-03T05:13:41.677Z,6.67
2018-12-03T05:18:45.077Z,7.04
2018-12-03T05:23:49.070Z,6.92
2018-12-03T05:28:52.549Z,6.68
2018-12-03T05:33:55.941Z,6.53
2018-12-03T05:38:59.300Z,6.49
2018-12-03T05:44:02.730Z,6.49
2018-12-03T05:49:06.212Z,6.51
2018-12-03T05:54:09.763Z,6.50
2018-12-03T05:59:13.243Z,6.45
2018-12-03T06:04:16.764Z,6.54
2018-12-03T06:09:20.152Z,6.53
2018-12-03T06:14:23.487Z,6.49
2018-12-03T06:19:26.941Z,6.57
2018-12-03T06:24:30.346Z,6.58
2018-12-03T06:29:33.804Z,6.62
2018-12-03T06:34:37.257Z,6.57
2018-12-03T06:39:40.672Z,6.62
2018-12-03T06:44:44.758Z,6.67
2018-12-03T06:49:48.225Z,6.67
2018-12-03T06:54:51.757Z,6.66
2018-12-03T06:59:55.157Z,6.55
2018-12-03T07:04:58.641Z,6.59
2018-12-03T07:10:02.005Z,6.52
2018-12-03T07:15:07.143Z,6.56
2018-12-03T07:20:11.767Z,6.59
2018-12-03T07:25:15.185Z,6.73
2018-12-03T07:30:20.963Z,6.65
2018-12-03T07:35:25.085Z,6.52
2018-12-03T07:40:28.596Z,6.71
2018-12-03T07:45:32.117Z,6.77
2018-12-03T07:50:35.476Z,6.67
2018-12-03T07:55:38.993Z,6.68
2018-12-03T08:00:45.045Z,6.68
2018-12-03T08:05:48.513Z,6.79
2018-12-03T08:10:54.791Z,6.81
2018-12-03T08:15:58.527Z,6.86
2018-12-03T08:21:04.004Z,6.86
2018-12-03T08:26:09.009Z,6.85
2018-12-03T08:31:12.481Z,6.90
2018-12-03T08:36:15.951Z,6.89
2018-12-03T08:41:19.846Z,6.90
2018-12-03T08:46:23.308Z,7.01
2018-12-03T08:51:26.777Z,7.02
2018-12-03T08:56:30.961Z,7.15
2018-12-03T09:01:34.381Z,7.20
2018-12-03T09:06:37.870Z,7.34
2018-12-03T09:11:47.752Z,7.35
2018-12-03T09:16:51.762Z,7.46
2018-12-03T09:21:55.278Z,7.42
2018-12-03T09:26:58.634Z,7.51
2018-12-03T09:32:02.013Z,7.54
2018-12-03T09:37:05.827Z,7.61
2018-12-03T09:42:09.332Z,7.67
2018-12-03T09:47:12.827Z,7.74
2018-12-03T09:52:16.212Z,7.90
2018-12-03T09:57:20.317Z,7.94
2018-12-03T10:02:27.395Z,8.05
2018-12-03T10:07:30.814Z,8.15
2018-12-03T10:12:34.251Z,8.26
2018-12-03T10:17:37.723Z,8.30
2018-12-03T10:22:41.229Z,8.41
2018-12-03T10:27:44.668Z,8.56
2018-12-03T10:32:50.847Z,8.68
2018-12-03T10:37:54.264Z,8.79
2018-12-03T10:42:57.759Z,8.83
2018-12-03T10:48:01.084Z,9.04
2018-12-03T10:53:04.554Z,9.11
2018-12-03T10:58:08.022Z,9.31
2018-12-03T11:03:17.742Z,9.45
2018-12-03T11:08:22.406Z,9.45
2018-12-03T11:13:25.841Z,9.39
2018-12-03T11:18:31.746Z,9.56
2018-12-03T11:23:35.256Z,9.80
2018-12-03T11:28:40.728Z,9.87
2018-12-03T11:33:45.022Z,9.96
2018-12-03T11:39:03.603Z,10.34
2018-12-03T11:44:07.115Z,11.50
2018-12-03T11:49:11.360Z,12.04
2018-12-03T11:54:14.752Z,12.60
2018-12-03T11:59:18.410Z,12.62
2018-12-03T12:04:22.667Z,12.65
2018-12-03T12:09:26.041Z,12.87
2018-12-03T12:14:29.953Z,12.87
2018-12-03T12:19:33.477Z,12.56
2018-12-03T12:24:37.819Z,13.23
2018-12-03T12:29:41.323Z,12.99
2018-12-03T12:34:44.753Z,13.02
2018-12-03T12:39:48.312Z,12.58
2018-12-03T12:44:51.870Z,13.08
2018-12-03T12:49:55.386Z,13.24
2018-12-03T12:54:58.853Z,13.08
2018-12-03T13:00:02.297Z,12.95
2018-12-03T13:05:05.773Z,13.01
2018-12-03T13:10:12.810Z,12.89
2018-12-03T13:15:16.165Z,12.75
2018-12-03T13:20:19.705Z,12.76
2018-12-03T13:25:23.828Z,12.54
2018-12-03T13:30:27.273Z,12.71
2018-12-03T13:35:56.405Z,12.48
2018-12-03T13:40:59.763Z,12.81
2018-12-03T13:46:02.548Z,12.38
2018-12-03T13:51:05.265Z,12.33
2018-12-03T13:56:07.939Z,12.23
2018-12-03T14:01:10.500Z,12.25
2018-12-03T14:06:13.194Z,12.27
2018-12-03T14:11:15.782Z,12.43
2018-12-03T14:16:19.012Z,12.35
2018-12-03T14:21:21.645Z,12.49
2018-12-03T14:26:24.275Z,12.63
2018-12-03T14:31:27.041Z,12.37
2018-12-03T14:36:30.201Z,12.18
2018-12-03T14:41:32.852Z,12.24
2018-12-03T14:46:35.463Z,12.31
2018-12-03T14:51:38.077Z,12.06
2018-12-03T14:56:40.666Z,12.31
2018-12-03T15:01:43.227Z,11.87
2018-12-03T15:06:45.864Z,11.91
2018-12-03T15:11:49.024Z,11.63
2018-12-03T15:16:51.605Z,11.48
2018-12-03T15:21:54.205Z,11.59
2018-12-03T15:26:57.402Z,11.49
2018-12-03T15:32:00.113Z,11.28
2018-12-03T15:37:02.656Z,11.23
2018-12-03T15:42:05.301Z,11.39
2018-12-03T15:47:07.910Z,11.16
2018-12-03T15:52:12.778Z,10.96
2018-12-03T15:57:15.322Z,10.95
2018-12-03T16:02:18.378Z,10.82
2018-12-03T16:07:21.025Z,10.83
2018-12-03T16:12:23.570Z,10.85
2018-12-03T16:17:26.257Z,10.82
2018-12-03T16:22:28.909Z,10.82
2018-12-03T16:27:31.453Z,10.68
2018-12-03T16:32:34.006Z,10.59
2018-12-03T16:37:36.581Z,10.67
2018-12-03T16:42:39.881Z,10.78
2018-12-03T16:47:42.434Z,10.63
2018-12-03T16:52:45.066Z,10.42
2018-12-03T16:57:47.922Z,10.44
2018-12-03T17:02:50.540Z,10.50
2018-12-03T17:07:53.161Z,10.53
2018-12-03T17:12:55.744Z,10.24
2018-12-03T17:17:58.340Z,10.21
2018-12-03T17:23:01.161Z,10.08
2018-12-03T17:28:03.762Z,10.05
2018-12-03T17:33:06.390Z,9.91
2018-12-03T17:38:08.952Z,9.92
2018-12-03T17:43:11.834Z,9.87
2018-12-03T17:48:15.047Z,9.81
2018-12-03T17:53:17.674Z,9.67
2018-12-03T17:58:20.693Z,9.72
2018-12-03T18:03:24.443Z,9.62
2018-12-03T18:08:27.070Z,9.66
2018-12-03T18:13:29.650Z,9.80
2018-12-03T18:18:32.197Z,9.84
2018-12-03T18:23:35.317Z,9.93
2018-12-03T18:28:38.605Z,9.93
2018-12-03T18:33:41.988Z,9.65
2018-12-03T18:38:45.147Z,9.53
2018-12-03T18:43:47.733Z,9.55
2018-12-03T18:48:50.534Z,9.39
2018-12-03T18:53:53.138Z,9.43
2018-12-03T18:58:55.671Z,9.35
2018-12-03T19:03:58.309Z,9.37
2018-12-03T19:09:00.901Z,9.28
2018-12-03T19:14:03.503Z,9.28
2018-12-03T19:19:06.195Z,9.28
2018-12-03T19:24:08.740Z,9.21
2018-12-03T19:29:11.357Z,9.19
2018-12-03T19:34:13.964Z,9.41
2018-12-03T19:39:16.537Z,9.37
2018-12-03T19:44:19.148Z,9.62
2018-12-03T19:49:21.824Z,9.50
2018-12-03T19:54:24.377Z,9.49
2018-12-03T19:59:27.372Z,9.49
2018-12-03T20:04:35.602Z,9.42
2018-12-03T20:09:38.201Z,9.62
2018-12-03T20:14:40.809Z,9.68
2018-12-03T20:19:43.376Z,9.67
2018-12-03T20:24:45.946Z,9.71
2018-12-03T20:29:49.005Z,9.47
2018-12-03T20:34:51.655Z,9.53
2018-12-03T20:39:58.168Z,9.61
2018-12-03T20:45:02.014Z,9.60
2018-12-03T20:50:10.499Z,9.52
2018-12-03T20:55:16.126Z,9.47
2018-12-03T21:00:19.289Z,9.41
2018-12-03T21:05:22.085Z,9.31
2018-12-03T21:10:24.643Z,9.32
2018-12-03T21:15:27.312Z,9.36
2018-12-03T21:20:29.852Z,9.41
2018-12-03T21:25:32.448Z,9.39
2018-12-03T21:30:37.251Z,9.35
2018-12-03T21:35:40.089Z,9.22
2018-12-03T21:40:42.646Z,9.21
2018-12-03T21:45:45.335Z,9.19
2018-12-03T21:50:48.064Z,9.20
2018-12-03T21:55:50.922Z,9.03
2018-12-03T22:00:53.953Z,9.08
2018-12-03T22:05:56.506Z,9.18
2018-12-03T22:10:59.078Z,9.04
2018-12-03T22:16:01.637Z,9.12
2018-12-03T22:21:04.840Z,9.07
2018-12-03T22:26:07.836Z,9.15
2018-12-03T22:31:10.656Z,9.08
2018-12-03T22:36:13.196Z,9.12
2018-12-03T22:41:15.801Z,9.13
2018-12-03T22:46:18.366Z,9.10
2018-12-03T22:51:21.175Z,9.04
2018-12-03T22:56:24.257Z,9.06
2018-12-03T23:01:26.851Z,8.95
2018-12-03T23:06:29.388Z,8.96
2018-12-03T23:11:32.004Z,8.93
2018-12-03T23:16:34.703Z,9.01
2018-12-03T23:21:37.251Z,9.33
2018-12-03T23:26:39.850Z,9.25
2018-12-03T23:31:42.501Z,9.33
2018-12-03T23:36:46.007Z,9.10
2018-12-03T23:41:48.541Z,9.04
2018-12-03T23:46:51.089Z,9.01
2018-12-03T23:51:54.447Z,9.01
2018-12-03T23:56:56.984Z,8.81
